sensor_id;sensor_type;location;lat;lon;timestamp;temperature;humidity
25811;DHT22;13645;52.460;13.910;2022-08-21T00:01:49;19.20;99.90
25811;DHT22;13645;52.460;13.910;2022-08-21T00:04:17;19.20;99.90
25811;DHT22;13645;52.460;13.910;2022-08-21T00:06:48;19.20;99.90
25811;DHT22;13645;52.460;13.910;2022-08-21T00:09:15;19.10;99.90
25811;DHT22;13645;52.460;13.910;2022-08-21T00:11:42;19.10;99.90
25811;DHT22;13645;52.460;13.910;2022-08-21T00:14:10;19.10;99.90
25811;DHT22;13645;52.460;13.910;2022-08-21T00:16:38;19.10;99.90
25811;DHT22;13645;52.460;13.910;2022-08-21T00:19:05;19.10;99.90
25811;DHT22;13645;52.460;13.910;2022-08-21T00:21:33;19.10;99.90
25811;DHT22;13645;52.460;13.910;2022-08-21T00:24:00;19.10;99.90
25811;DHT22;13645;52.460;13.910;2022-08-21T00:26:27;19.00;99.90
25811;DHT22;13645;52.460;13.910;2022-08-21T00:28:54;19.00;99.90
25811;DHT22;13645;52.460;13.910;2022-08-21T00:31:23;19.00;99.90
25811;DHT22;13645;52.460;13.910;2022-08-21T00:33:50;19.00;99.90
25811;DHT22;13645;52.460;13.910;2022-08-21T00:36:26;19.00;99.90
25811;DHT22;13645;52.460;13.910;2022-08-21T00:38:53;19.00;99.90
25811;DHT22;13645;52.460;13.910;2022-08-21T00:41:20;19.00;99.90
25811;DHT22;13645;52.460;13.910;2022-08-21T00:44:05;18.90;99.90
25811;DHT22;13645;52.460;13.910;2022-08-21T00:46:32;18.90;99.90
25811;DHT22;13645;52.460;13.910;2022-08-21T00:48:59;18.90;99.90
25811;DHT22;13645;52.460;13.910;2022-08-21T00:51:33;19.00;99.90
25811;DHT22;13645;52.460;13.910;2022-08-21T00:54:04;19.00;99.90
25811;DHT22;13645;52.460;13.910;2022-08-21T00:56:38;18.90;99.90
25811;DHT22;13645;52.460;13.910;2022-08-21T00:59:09;18.90;99.90
25811;DHT22;13645;52.460;13.910;2022-08-21T01:01:36;18.80;99.90
25811;DHT22;13645;52.460;13.910;2022-08-21T01:04:03;18.90;99.90
25811;DHT22;13645;52.460;13.910;2022-08-21T01:06:30;18.90;99.90
25811;DHT22;13645;52.460;13.910;2022-08-21T01:08:57;18.90;99.90
25811;DHT22;13645;52.460;13.910;2022-08-21T01:11:24;18.80;99.90
25811;DHT22;13645;52.460;13.910;2022-08-21T01:13:52;18.90;99.90
25811;DHT22;13645;52.460;13.910;2022-08-21T01:16:20;18.90;99.90
25811;DHT22;13645;52.460;13.910;2022-08-21T01:18:51;18.90;99.90
25811;DHT22;13645;52.460;13.910;2022-08-21T01:21:25;18.80;99.90
25811;DHT22;13645;52.460;13.910;2022-08-21T01:23:55;18.80;99.90
25811;DHT22;13645;52.460;13.910;2022-08-21T01:26:30;18.80;99.90
25811;DHT22;13645;52.460;13.910;2022-08-21T01:31:46;18.80;99.90
25811;DHT22;13645;52.460;13.910;2022-08-21T01:34:13;18.80;99.90
25811;DHT22;13645;52.460;13.910;2022-08-21T01:36:43;18.80;99.90
25811;DHT22;13645;52.460;13.910;2022-08-21T01:39:11;18.70;99.90
25811;DHT22;13645;52.460;13.910;2022-08-21T01:41:38;18.70;99.90
25811;DHT22;13645;52.460;13.910;2022-08-21T01:44:05;18.70;99.90
25811;DHT22;13645;52.460;13.910;2022-08-21T01:46:32;18.70;99.90
25811;DHT22;13645;52.460;13.910;2022-08-21T01:48:59;18.70;99.90
25811;DHT22;13645;52.460;13.910;2022-08-21T01:51:27;18.70;99.90
25811;DHT22;13645;52.460;13.910;2022-08-21T01:53:54;18.70;99.90
25811;DHT22;13645;52.460;13.910;2022-08-21T01:56:21;18.70;99.90
25811;DHT22;13645;52.460;13.910;2022-08-21T01:58:49;18.60;99.90
25811;DHT22;13645;52.460;13.910;2022-08-21T02:01:16;18.60;99.90
25811;DHT22;13645;52.460;13.910;2022-08-21T02:03:43;18.70;99.90
25811;DHT22;13645;52.460;13.910;2022-08-21T02:06:15;18.60;99.90
25811;DHT22;13645;52.460;13.910;2022-08-21T02:08:47;18.60;99.90
25811;DHT22;13645;52.460;13.910;2022-08-21T02:11:14;18.60;99.90
25811;DHT22;13645;52.460;13.910;2022-08-21T02:13:41;18.60;99.90
25811;DHT22;13645;52.460;13.910;2022-08-21T02:16:11;18.60;99.90
25811;DHT22;13645;52.460;13.910;2022-08-21T02:18:45;18.60;99.90
25811;DHT22;13645;52.460;13.910;2022-08-21T02:21:12;18.50;99.90
25811;DHT22;13645;52.460;13.910;2022-08-21T02:23:42;18.50;99.90
25811;DHT22;13645;52.460;13.910;2022-08-21T02:26:09;18.50;99.90
25811;DHT22;13645;52.460;13.910;2022-08-21T02:28:37;18.50;99.90
25811;DHT22;13645;52.460;13.910;2022-08-21T02:31:06;18.60;99.90
25811;DHT22;13645;52.460;13.910;2022-08-21T02:33:36;18.50;99.90
25811;DHT22;13645;52.460;13.910;2022-08-21T02:36:05;18.50;99.90
25811;DHT22;13645;52.460;13.910;2022-08-21T02:38:33;18.50;99.90
25811;DHT22;13645;52.460;13.910;2022-08-21T02:41:16;18.50;99.90
25811;DHT22;13645;52.460;13.910;2022-08-21T02:43:44;18.50;99.90
25811;DHT22;13645;52.460;13.910;2022-08-21T02:46:21;18.50;99.90
25811;DHT22;13645;52.460;13.910;2022-08-21T02:48:58;18.40;99.90
25811;DHT22;13645;52.460;13.910;2022-08-21T02:51:27;18.40;99.90
25811;DHT22;13645;52.460;13.910;2022-08-21T02:53:55;18.40;99.90
25811;DHT22;13645;52.460;13.910;2022-08-21T02:56:21;18.30;99.90
25811;DHT22;13645;52.460;13.910;2022-08-21T02:58:51;18.30;99.90
25811;DHT22;13645;52.460;13.910;2022-08-21T03:01:19;18.30;99.90
25811;DHT22;13645;52.460;13.910;2022-08-21T03:03:48;18.30;99.90
25811;DHT22;13645;52.460;13.910;2022-08-21T03:06:20;18.30;99.90
25811;DHT22;13645;52.460;13.910;2022-08-21T03:08:47;18.30;99.90
25811;DHT22;13645;52.460;13.910;2022-08-21T03:11:15;18.30;99.90
25811;DHT22;13645;52.460;13.910;2022-08-21T03:13:42;18.20;99.90
25811;DHT22;13645;52.460;13.910;2022-08-21T03:16:09;18.20;99.90
25811;DHT22;13645;52.460;13.910;2022-08-21T03:18:37;18.20;99.90
25811;DHT22;13645;52.460;13.910;2022-08-21T03:21:05;18.20;99.90
25811;DHT22;13645;52.460;13.910;2022-08-21T03:23:35;18.20;99.90
25811;DHT22;13645;52.460;13.910;2022-08-21T03:28:57;18.10;99.90
25811;DHT22;13645;52.460;13.910;2022-08-21T03:31:25;18.10;99.90
25811;DHT22;13645;52.460;13.910;2022-08-21T03:33:55;18.10;99.90
25811;DHT22;13645;52.460;13.910;2022-08-21T03:36:23;18.00;99.90
25811;DHT22;13645;52.460;13.910;2022-08-21T03:38:50;18.00;99.90
25811;DHT22;13645;52.460;13.910;2022-08-21T03:41:20;18.00;99.90
25811;DHT22;13645;52.460;13.910;2022-08-21T03:43:47;18.00;99.90
25811;DHT22;13645;52.460;13.910;2022-08-21T03:46:13;17.90;99.90
25811;DHT22;13645;52.460;13.910;2022-08-21T03:48:40;17.90;99.90
25811;DHT22;13645;52.460;13.910;2022-08-21T03:51:07;17.90;99.90
25811;DHT22;13645;52.460;13.910;2022-08-21T03:53:34;17.80;99.90
25811;DHT22;13645;52.460;13.910;2022-08-21T03:56:02;17.80;99.90
25811;DHT22;13645;52.460;13.910;2022-08-21T03:58:29;17.80;99.90
25811;DHT22;13645;52.460;13.910;2022-08-21T04:00:58;17.80;99.90
25811;DHT22;13645;52.460;13.910;2022-08-21T04:03:26;17.80;99.90
25811;DHT22;13645;52.460;13.910;2022-08-21T04:05:53;17.80;99.90
25811;DHT22;13645;52.460;13.910;2022-08-21T04:08:20;17.80;99.90
25811;DHT22;13645;52.460;13.910;2022-08-21T04:10:49;17.70;99.90
25811;DHT22;13645;52.460;13.910;2022-08-21T04:13:16;17.70;99.90
25811;DHT22;13645;52.460;13.910;2022-08-21T04:15:43;17.70;99.90
25811;DHT22;13645;52.460;13.910;2022-08-21T04:18:10;17.70;99.90
25811;DHT22;13645;52.460;13.910;2022-08-21T04:20:37;17.70;99.90
25811;DHT22;13645;52.460;13.910;2022-08-21T04:23:06;17.70;99.90
25811;DHT22;13645;52.460;13.910;2022-08-21T04:25:33;17.70;99.90
25811;DHT22;13645;52.460;13.910;2022-08-21T04:28:00;17.70;99.90
25811;DHT22;13645;52.460;13.910;2022-08-21T04:30:28;17.70;99.90
25811;DHT22;13645;52.460;13.910;2022-08-21T04:32:56;17.70;99.90
25811;DHT22;13645;52.460;13.910;2022-08-21T04:35:26;17.70;99.90
25811;DHT22;13645;52.460;13.910;2022-08-21T04:37:53;17.70;99.90
25811;DHT22;13645;52.460;13.910;2022-08-21T04:40:21;17.70;99.90
25811;DHT22;13645;52.460;13.910;2022-08-21T04:43:00;17.60;99.90
25811;DHT22;13645;52.460;13.910;2022-08-21T04:45:32;17.70;99.90
25811;DHT22;13645;52.460;13.910;2022-08-21T04:48:01;17.70;99.90
25811;DHT22;13645;52.460;13.910;2022-08-21T04:50:50;17.70;99.90
25811;DHT22;13645;52.460;13.910;2022-08-21T04:53:22;17.70;99.90
25811;DHT22;13645;52.460;13.910;2022-08-21T04:55:51;17.60;99.90
25811;DHT22;13645;52.460;13.910;2022-08-21T04:58:23;17.70;99.90
25811;DHT22;13645;52.460;13.910;2022-08-21T05:00:54;17.70;99.90
25811;DHT22;13645;52.460;13.910;2022-08-21T05:03:21;17.70;99.90
25811;DHT22;13645;52.460;13.910;2022-08-21T05:05:49;17.70;99.90
25811;DHT22;13645;52.460;13.910;2022-08-21T05:08:18;17.60;99.90
25811;DHT22;13645;52.460;13.910;2022-08-21T05:10:45;17.70;99.90
25811;DHT22;13645;52.460;13.910;2022-08-21T05:13:12;17.70;99.90
25811;DHT22;13645;52.460;13.910;2022-08-21T05:15:40;17.70;99.90
25811;DHT22;13645;52.460;13.910;2022-08-21T05:18:07;17.80;99.90
25811;DHT22;13645;52.460;13.910;2022-08-21T05:20:33;17.80;99.90
25811;DHT22;13645;52.460;13.910;2022-08-21T05:23:11;17.90;99.90
25811;DHT22;13645;52.460;13.910;2022-08-21T05:25:38;17.90;99.90
25811;DHT22;13645;52.460;13.910;2022-08-21T05:28:06;17.90;99.90
25811;DHT22;13645;52.460;13.910;2022-08-21T05:30:34;17.90;99.90
25811;DHT22;13645;52.460;13.910;2022-08-21T05:33:03;17.90;99.90
25811;DHT22;13645;52.460;13.910;2022-08-21T05:35:31;17.90;99.90
25811;DHT22;13645;52.460;13.910;2022-08-21T05:37:59;17.90;99.90
25811;DHT22;13645;52.460;13.910;2022-08-21T05:40:27;17.90;99.90
25811;DHT22;13645;52.460;13.910;2022-08-21T05:42:54;17.90;99.90
25811;DHT22;13645;52.460;13.910;2022-08-21T05:45:26;17.90;99.90
25811;DHT22;13645;52.460;13.910;2022-08-21T05:48:23;17.90;99.90
25811;DHT22;13645;52.460;13.910;2022-08-21T05:50:51;17.90;99.90
25811;DHT22;13645;52.460;13.910;2022-08-21T05:53:20;17.90;99.90
25811;DHT22;13645;52.460;13.910;2022-08-21T05:55:47;18.00;99.90
25811;DHT22;13645;52.460;13.910;2022-08-21T05:58:16;18.00;99.90
25811;DHT22;13645;52.460;13.910;2022-08-21T06:00:45;18.00;99.90
25811;DHT22;13645;52.460;13.910;2022-08-21T06:03:23;18.00;99.90
25811;DHT22;13645;52.460;13.910;2022-08-21T06:05:51;18.00;99.90
25811;DHT22;13645;52.460;13.910;2022-08-21T06:08:19;18.10;99.90
25811;DHT22;13645;52.460;13.910;2022-08-21T06:10:47;18.00;99.90
25811;DHT22;13645;52.460;13.910;2022-08-21T06:13:16;18.10;99.90
25811;DHT22;13645;52.460;13.910;2022-08-21T06:15:43;18.10;99.90
25811;DHT22;13645;52.460;13.910;2022-08-21T06:18:11;18.10;99.90
25811;DHT22;13645;52.460;13.910;2022-08-21T06:20:39;18.10;99.90
25811;DHT22;13645;52.460;13.910;2022-08-21T06:23:05;18.10;99.90
25811;DHT22;13645;52.460;13.910;2022-08-21T06:25:32;18.20;99.90
25811;DHT22;13645;52.460;13.910;2022-08-21T06:28:07;18.20;99.90
25811;DHT22;13645;52.460;13.910;2022-08-21T06:30:36;18.20;99.90
25811;DHT22;13645;52.460;13.910;2022-08-21T06:33:04;18.20;99.90
25811;DHT22;13645;52.460;13.910;2022-08-21T06:35:30;18.20;99.90
25811;DHT22;13645;52.460;13.910;2022-08-21T06:37:57;18.30;99.90
25811;DHT22;13645;52.460;13.910;2022-08-21T06:40:28;18.40;99.90
25811;DHT22;13645;52.460;13.910;2022-08-21T06:43:09;18.40;99.90
25811;DHT22;13645;52.460;13.910;2022-08-21T06:45:41;18.50;99.90
25811;DHT22;13645;52.460;13.910;2022-08-21T06:48:08;18.50;99.90
25811;DHT22;13645;52.460;13.910;2022-08-21T06:50:35;18.50;99.90
25811;DHT22;13645;52.460;13.910;2022-08-21T06:53:06;18.60;99.90
25811;DHT22;13645;52.460;13.910;2022-08-21T06:55:34;18.70;99.90
25811;DHT22;13645;52.460;13.910;2022-08-21T06:58:01;18.70;99.90
25811;DHT22;13645;52.460;13.910;2022-08-21T07:00:28;18.80;99.90
25811;DHT22;13645;52.460;13.910;2022-08-21T07:02:55;18.80;99.90
25811;DHT22;13645;52.460;13.910;2022-08-21T07:05:21;18.90;99.90
25811;DHT22;13645;52.460;13.910;2022-08-21T07:07:48;18.90;99.90
25811;DHT22;13645;52.460;13.910;2022-08-21T07:10:15;18.90;99.90
25811;DHT22;13645;52.460;13.910;2022-08-21T07:12:47;18.90;99.90
25811;DHT22;13645;52.460;13.910;2022-08-21T07:15:16;18.90;99.90
25811;DHT22;13645;52.460;13.910;2022-08-21T07:17:43;18.90;99.90
25811;DHT22;13645;52.460;13.910;2022-08-21T07:20:09;18.90;99.90
25811;DHT22;13645;52.460;13.910;2022-08-21T07:22:40;18.90;99.90
25811;DHT22;13645;52.460;13.910;2022-08-21T07:25:07;18.90;99.90
25811;DHT22;13645;52.460;13.910;2022-08-21T07:27:34;19.00;99.90
25811;DHT22;13645;52.460;13.910;2022-08-21T07:30:01;19.00;99.90
25811;DHT22;13645;52.460;13.910;2022-08-21T07:32:27;19.00;99.90
25811;DHT22;13645;52.460;13.910;2022-08-21T07:34:54;19.00;99.90
25811;DHT22;13645;52.460;13.910;2022-08-21T07:37:21;19.00;99.90
25811;DHT22;13645;52.460;13.910;2022-08-21T07:39:48;19.00;99.90
25811;DHT22;13645;52.460;13.910;2022-08-21T07:42:15;19.00;99.90
25811;DHT22;13645;52.460;13.910;2022-08-21T07:44:42;19.10;99.90
25811;DHT22;13645;52.460;13.910;2022-08-21T07:47:09;19.20;99.90
25811;DHT22;13645;52.460;13.910;2022-08-21T07:49:36;19.20;99.90
25811;DHT22;13645;52.460;13.910;2022-08-21T07:52:03;19.30;99.90
25811;DHT22;13645;52.460;13.910;2022-08-21T07:54:30;19.40;99.90
25811;DHT22;13645;52.460;13.910;2022-08-21T07:57:23;19.40;99.90
25811;DHT22;13645;52.460;13.910;2022-08-21T07:59:53;19.50;99.90
25811;DHT22;13645;52.460;13.910;2022-08-21T08:02:25;19.60;99.90
25811;DHT22;13645;52.460;13.910;2022-08-21T08:04:52;19.60;99.90
25811;DHT22;13645;52.460;13.910;2022-08-21T08:07:18;19.70;99.90
25811;DHT22;13645;52.460;13.910;2022-08-21T08:09:46;19.80;99.90
25811;DHT22;13645;52.460;13.910;2022-08-21T08:12:12;19.80;99.90
25811;DHT22;13645;52.460;13.910;2022-08-21T08:14:39;19.80;99.90
25811;DHT22;13645;52.460;13.910;2022-08-21T08:17:06;19.80;99.90
25811;DHT22;13645;52.460;13.910;2022-08-21T08:19:34;19.90;99.90
25811;DHT22;13645;52.460;13.910;2022-08-21T08:22:00;19.90;99.90
25811;DHT22;13645;52.460;13.910;2022-08-21T08:24:27;19.90;99.90
25811;DHT22;13645;52.460;13.910;2022-08-21T08:26:54;19.90;99.90
25811;DHT22;13645;52.460;13.910;2022-08-21T08:29:23;19.80;99.90
25811;DHT22;13645;52.460;13.910;2022-08-21T08:31:50;19.90;99.90
25811;DHT22;13645;52.460;13.910;2022-08-21T08:34:17;19.90;99.90
25811;DHT22;13645;52.460;13.910;2022-08-21T08:36:51;19.90;99.90
25811;DHT22;13645;52.460;13.910;2022-08-21T08:39:18;20.00;99.90
25811;DHT22;13645;52.460;13.910;2022-08-21T08:42:14;20.10;99.90
25811;DHT22;13645;52.460;13.910;2022-08-21T08:45:00;20.10;99.90
25811;DHT22;13645;52.460;13.910;2022-08-21T08:47:30;20.20;99.90
25811;DHT22;13645;52.460;13.910;2022-08-21T08:50:27;20.30;99.90
25811;DHT22;13645;52.460;13.910;2022-08-21T08:52:59;20.50;99.90
25811;DHT22;13645;52.460;13.910;2022-08-21T08:55:36;20.50;99.90
25811;DHT22;13645;52.460;13.910;2022-08-21T08:58:03;20.50;99.90
25811;DHT22;13645;52.460;13.910;2022-08-21T09:00:31;20.60;99.90
25811;DHT22;13645;52.460;13.910;2022-08-21T09:03:01;20.70;99.90
25811;DHT22;13645;52.460;13.910;2022-08-21T09:11:01;20.80;99.90
25811;DHT22;13645;52.460;13.910;2022-08-21T09:13:54;20.90;99.90
25811;DHT22;13645;52.460;13.910;2022-08-21T09:25:25;21.20;99.90
25811;DHT22;13645;52.460;13.910;2022-08-21T09:27:53;21.30;99.90
25811;DHT22;13645;52.460;13.910;2022-08-21T09:30:29;21.40;99.90
25811;DHT22;13645;52.460;13.910;2022-08-21T09:32:57;21.40;99.90
25811;DHT22;13645;52.460;13.910;2022-08-21T09:35:24;21.40;99.90
25811;DHT22;13645;52.460;13.910;2022-08-21T09:38:01;21.30;99.90
25811;DHT22;13645;52.460;13.910;2022-08-21T09:40:44;21.20;99.90
25811;DHT22;13645;52.460;13.910;2022-08-21T09:45:43;21.20;99.90
25811;DHT22;13645;52.460;13.910;2022-08-21T09:48:41;21.20;99.90
25811;DHT22;13645;52.460;13.910;2022-08-21T09:52:02;21.20;99.90
25811;DHT22;13645;52.460;13.910;2022-08-21T09:54:32;21.20;99.90
25811;DHT22;13645;52.460;13.910;2022-08-21T09:59:54;21.20;99.90
25811;DHT22;13645;52.460;13.910;2022-08-21T10:02:32;21.10;99.90
25811;DHT22;13645;52.460;13.910;2022-08-21T10:05:08;21.10;99.90
25811;DHT22;13645;52.460;13.910;2022-08-21T10:07:37;21.10;99.90
25811;DHT22;13645;52.460;13.910;2022-08-21T10:21:33;21.50;99.90
25811;DHT22;13645;52.460;13.910;2022-08-21T10:27:29;21.70;99.90
25811;DHT22;13645;52.460;13.910;2022-08-21T10:32:40;21.80;99.90
25811;DHT22;13645;52.460;13.910;2022-08-21T10:35:13;21.90;99.90
25811;DHT22;13645;52.460;13.910;2022-08-21T10:41:27;22.10;99.90
25811;DHT22;13645;52.460;13.910;2022-08-21T10:43:50;22.10;99.90
25811;DHT22;13645;52.460;13.910;2022-08-21T10:49:38;21.90;99.90
25811;DHT22;13645;52.460;13.910;2022-08-21T10:52:35;21.90;99.90
25811;DHT22;13645;52.460;13.910;2022-08-21T10:55:16;21.90;99.90
25811;DHT22;13645;52.460;13.910;2022-08-21T10:58:05;22.00;99.90
25811;DHT22;13645;52.460;13.910;2022-08-21T11:00:45;22.10;99.90
25811;DHT22;13645;52.460;13.910;2022-08-21T11:03:35;22.00;99.90
25811;DHT22;13645;52.460;13.910;2022-08-21T11:06:16;22.00;99.90
25811;DHT22;13645;52.460;13.910;2022-08-21T11:08:48;21.90;99.90
25811;DHT22;13645;52.460;13.910;2022-08-21T11:11:47;22.00;99.90
25811;DHT22;13645;52.460;13.910;2022-08-21T11:14:47;21.90;99.90
25811;DHT22;13645;52.460;13.910;2022-08-21T11:17:20;22.00;99.90
25811;DHT22;13645;52.460;13.910;2022-08-21T11:20:08;22.10;99.90
25811;DHT22;13645;52.460;13.910;2022-08-21T11:25:37;22.50;99.90
25811;DHT22;13645;52.460;13.910;2022-08-21T11:28:22;22.80;99.90
25811;DHT22;13645;52.460;13.910;2022-08-21T11:30:59;22.80;99.90
25811;DHT22;13645;52.460;13.910;2022-08-21T11:33:57;23.00;99.90
25811;DHT22;13645;52.460;13.910;2022-08-21T11:42:40;24.30;99.90
25811;DHT22;13645;52.460;13.910;2022-08-21T11:45:21;24.40;99.90
25811;DHT22;13645;52.460;13.910;2022-08-21T11:50:42;24.60;99.90
25811;DHT22;13645;52.460;13.910;2022-08-21T11:53:30;25.00;99.90
25811;DHT22;13645;52.460;13.910;2022-08-21T11:56:15;25.40;99.90
25811;DHT22;13645;52.460;13.910;2022-08-21T11:58:48;25.70;99.90
25811;DHT22;13645;52.460;13.910;2022-08-21T12:01:19;25.90;99.90
25811;DHT22;13645;52.460;13.910;2022-08-21T12:03:56;26.20;99.90
25811;DHT22;13645;52.460;13.910;2022-08-21T12:06:35;26.60;99.90
25811;DHT22;13645;52.460;13.910;2022-08-21T12:09:06;26.80;99.90
25811;DHT22;13645;52.460;13.910;2022-08-21T12:11:49;26.60;99.90
25811;DHT22;13645;52.460;13.910;2022-08-21T12:14:18;26.70;99.90
25811;DHT22;13645;52.460;13.910;2022-08-21T12:16:48;26.70;99.90
25811;DHT22;13645;52.460;13.910;2022-08-21T12:26:57;25.70;99.90
25811;DHT22;13645;52.460;13.910;2022-08-21T12:29:28;25.90;99.90
25811;DHT22;13645;52.460;13.910;2022-08-21T12:31:59;25.70;99.90
25811;DHT22;13645;52.460;13.910;2022-08-21T12:34:39;25.80;99.90
25811;DHT22;13645;52.460;13.910;2022-08-21T12:37:43;25.60;99.90
25811;DHT22;13645;52.460;13.910;2022-08-21T12:40:16;25.60;99.90
25811;DHT22;13645;52.460;13.910;2022-08-21T12:42:49;25.50;99.90
25811;DHT22;13645;52.460;13.910;2022-08-21T12:45:42;25.40;99.90
25811;DHT22;13645;52.460;13.910;2022-08-21T12:48:14;25.60;99.90
25811;DHT22;13645;52.460;13.910;2022-08-21T12:50:52;25.60;99.90
25811;DHT22;13645;52.460;13.910;2022-08-21T12:53:42;26.00;99.90
25811;DHT22;13645;52.460;13.910;2022-08-21T12:56:33;26.40;99.90
25811;DHT22;13645;52.460;13.910;2022-08-21T13:01:36;26.30;99.90
25811;DHT22;13645;52.460;13.910;2022-08-21T13:04:13;26.40;99.90
25811;DHT22;13645;52.460;13.910;2022-08-21T13:06:50;26.80;99.90
25811;DHT22;13645;52.460;13.910;2022-08-21T13:09:20;27.20;99.90
25811;DHT22;13645;52.460;13.910;2022-08-21T13:12:01;26.80;99.90
25811;DHT22;13645;52.460;13.910;2022-08-21T13:14:29;26.60;99.90
25811;DHT22;13645;52.460;13.910;2022-08-21T13:16:58;26.30;99.90
25811;DHT22;13645;52.460;13.910;2022-08-21T13:19:26;26.80;99.90
25811;DHT22;13645;52.460;13.910;2022-08-21T13:21:53;27.00;99.90
25811;DHT22;13645;52.460;13.910;2022-08-21T13:24:26;26.90;99.90
25811;DHT22;13645;52.460;13.910;2022-08-21T13:27:25;26.80;99.90
25811;DHT22;13645;52.460;13.910;2022-08-21T13:30:13;26.60;99.90
25811;DHT22;13645;52.460;13.910;2022-08-21T13:32:48;26.80;99.90
25811;DHT22;13645;52.460;13.910;2022-08-21T13:35:19;26.70;99.90
25811;DHT22;13645;52.460;13.910;2022-08-21T13:37:49;26.60;99.90
25811;DHT22;13645;52.460;13.910;2022-08-21T13:40:28;26.50;99.90
25811;DHT22;13645;52.460;13.910;2022-08-21T13:42:56;26.30;99.90
25811;DHT22;13645;52.460;13.910;2022-08-21T13:45:29;26.10;99.90
25811;DHT22;13645;52.460;13.910;2022-08-21T13:47:59;26.10;99.90
25811;DHT22;13645;52.460;13.910;2022-08-21T13:50:33;26.10;99.90
25811;DHT22;13645;52.460;13.910;2022-08-21T13:53:06;26.20;99.90
25811;DHT22;13645;52.460;13.910;2022-08-21T13:55:41;26.50;99.90
25811;DHT22;13645;52.460;13.910;2022-08-21T13:58:09;26.70;99.90
25811;DHT22;13645;52.460;13.910;2022-08-21T14:00:50;26.80;99.90
25811;DHT22;13645;52.460;13.910;2022-08-21T14:03:44;27.10;99.90
25811;DHT22;13645;52.460;13.910;2022-08-21T14:06:16;27.20;99.90
25811;DHT22;13645;52.460;13.910;2022-08-21T14:08:50;26.90;99.90
25811;DHT22;13645;52.460;13.910;2022-08-21T14:11:17;26.90;99.90
25811;DHT22;13645;52.460;13.910;2022-08-21T14:13:48;26.80;99.90
25811;DHT22;13645;52.460;13.910;2022-08-21T14:16:21;26.90;99.90
25811;DHT22;13645;52.460;13.910;2022-08-21T14:21:39;26.30;99.90
25811;DHT22;13645;52.460;13.910;2022-08-21T14:24:38;26.30;99.90
25811;DHT22;13645;52.460;13.910;2022-08-21T14:27:06;26.50;99.90
25811;DHT22;13645;52.460;13.910;2022-08-21T14:29:41;26.60;99.60
25811;DHT22;13645;52.460;13.910;2022-08-21T14:32:16;26.70;99.90
25811;DHT22;13645;52.460;13.910;2022-08-21T14:34:50;26.70;99.70
25811;DHT22;13645;52.460;13.910;2022-08-21T14:37:17;26.80;99.90
25811;DHT22;13645;52.460;13.910;2022-08-21T14:39:44;27.00;98.20
25811;DHT22;13645;52.460;13.910;2022-08-21T14:42:12;27.20;99.40
25811;DHT22;13645;52.460;13.910;2022-08-21T14:44:39;27.00;95.90
25811;DHT22;13645;52.460;13.910;2022-08-21T14:47:06;27.00;99.50
25811;DHT22;13645;52.460;13.910;2022-08-21T14:49:32;27.10;98.40
25811;DHT22;13645;52.460;13.910;2022-08-21T14:51:59;27.00;97.10
25811;DHT22;13645;52.460;13.910;2022-08-21T14:54:28;26.80;97.80
25811;DHT22;13645;52.460;13.910;2022-08-21T14:57:00;26.40;96.80
25811;DHT22;13645;52.460;13.910;2022-08-21T14:59:27;26.40;99.10
25811;DHT22;13645;52.460;13.910;2022-08-21T15:01:54;26.50;96.40
25811;DHT22;13645;52.460;13.910;2022-08-21T15:04:22;26.50;96.00
25811;DHT22;13645;52.460;13.910;2022-08-21T15:06:49;26.60;93.50
25811;DHT22;13645;52.460;13.910;2022-08-21T15:09:16;26.60;92.20
25811;DHT22;13645;52.460;13.910;2022-08-21T15:11:42;26.40;93.30
25811;DHT22;13645;52.460;13.910;2022-08-21T15:14:22;26.00;92.50
25811;DHT22;13645;52.460;13.910;2022-08-21T15:16:50;25.70;91.80
25811;DHT22;13645;52.460;13.910;2022-08-21T15:19:17;25.50;92.10
25811;DHT22;13645;52.460;13.910;2022-08-21T15:21:44;25.40;92.50
25811;DHT22;13645;52.460;13.910;2022-08-21T15:24:11;25.20;93.50
25811;DHT22;13645;52.460;13.910;2022-08-21T15:26:37;25.30;95.40
25811;DHT22;13645;52.460;13.910;2022-08-21T15:29:06;25.30;94.70
25811;DHT22;13645;52.460;13.910;2022-08-21T15:31:34;25.30;93.90
25811;DHT22;13645;52.460;13.910;2022-08-21T15:34:01;25.50;93.80
25811;DHT22;13645;52.460;13.910;2022-08-21T15:36:28;25.70;84.70
25811;DHT22;13645;52.460;13.910;2022-08-21T15:38:55;26.00;87.60
25811;DHT22;13645;52.460;13.910;2022-08-21T15:41:22;25.80;86.20
25811;DHT22;13645;52.460;13.910;2022-08-21T15:43:51;25.70;90.70
25811;DHT22;13645;52.460;13.910;2022-08-21T15:46:19;25.70;86.40
25811;DHT22;13645;52.460;13.910;2022-08-21T15:48:47;25.80;90.60
25811;DHT22;13645;52.460;13.910;2022-08-21T15:51:15;25.80;87.70
25811;DHT22;13645;52.460;13.910;2022-08-21T15:53:43;25.70;91.40
25811;DHT22;13645;52.460;13.910;2022-08-21T15:56:34;25.60;90.90
25811;DHT22;13645;52.460;13.910;2022-08-21T15:59:05;25.70;92.10
25811;DHT22;13645;52.460;13.910;2022-08-21T16:01:35;25.70;92.90
25811;DHT22;13645;52.460;13.910;2022-08-21T16:04:15;25.70;94.10
25811;DHT22;13645;52.460;13.910;2022-08-21T16:06:44;25.70;92.80
25811;DHT22;13645;52.460;13.910;2022-08-21T16:09:22;25.50;94.00
25811;DHT22;13645;52.460;13.910;2022-08-21T16:11:49;25.40;94.50
25811;DHT22;13645;52.460;13.910;2022-08-21T16:14:16;25.40;93.20
25811;DHT22;13645;52.460;13.910;2022-08-21T16:16:44;25.20;93.30
25811;DHT22;13645;52.460;13.910;2022-08-21T16:19:12;25.20;91.80
25811;DHT22;13645;52.460;13.910;2022-08-21T16:21:39;25.20;93.50
25811;DHT22;13645;52.460;13.910;2022-08-21T16:24:06;25.00;92.80
25811;DHT22;13645;52.460;13.910;2022-08-21T16:26:33;24.90;94.10
25811;DHT22;13645;52.460;13.910;2022-08-21T16:29:00;24.80;92.90
25811;DHT22;13645;52.460;13.910;2022-08-21T16:31:30;24.50;93.80
25811;DHT22;13645;52.460;13.910;2022-08-21T16:33:57;24.30;96.10
25811;DHT22;13645;52.460;13.910;2022-08-21T16:36:25;24.20;96.20
25811;DHT22;13645;52.460;13.910;2022-08-21T16:38:56;24.10;96.00
25811;DHT22;13645;52.460;13.910;2022-08-21T16:41:26;23.90;96.20
25811;DHT22;13645;52.460;13.910;2022-08-21T16:43:54;23.80;96.50
25811;DHT22;13645;52.460;13.910;2022-08-21T16:46:21;23.60;96.70
25811;DHT22;13645;52.460;13.910;2022-08-21T16:48:48;23.50;98.20
25811;DHT22;13645;52.460;13.910;2022-08-21T16:51:16;23.30;97.60
25811;DHT22;13645;52.460;13.910;2022-08-21T16:53:43;23.20;99.90
25811;DHT22;13645;52.460;13.910;2022-08-21T16:56:12;23.10;99.90